sensor_id;sensor_type;location;lat;lon;timestamp;pressure;altitude;pressure_sealevel;temperature;humidity
60832;BME280;46665;51.558;-0.448;2023-06-14T00:00:47;101186.22;;;15.81;42.56
60832;BME280;46665;51.558;-0.448;2023-06-14T00:03:13;101182.75;;;15.75;41.32
60832;BME280;46665;51.558;-0.448;2023-06-14T00:05:43;101185.50;;;15.75;41.87
60832;BME280;46665;51.558;-0.448;2023-06-14T00:08:09;101188.25;;;15.75;41.79
60832;BME280;46665;51.558;-0.448;2023-06-14T00:10:36;101190.19;;;15.75;41.67
60832;BME280;46665;51.558;-0.448;2023-06-14T00:13:04;101189.66;;;15.73;41.73
60832;BME280;46665;51.558;-0.448;2023-06-14T00:15:31;101191.16;;;15.65;42.35
60832;BME280;46665;51.558;-0.448;2023-06-14T00:17:57;101190.56;;;15.49;44.30
60832;BME280;46665;51.558;-0.448;2023-06-14T00:20:30;101191.88;;;15.38;44.56
60832;BME280;46665;51.558;-0.448;2023-06-14T00:22:56;101195.25;;;15.16;45.56
60832;BME280;46665;51.558;-0.448;2023-06-14T00:25:25;101184.84;;;14.99;45.52
60832;BME280;46665;51.558;-0.448;2023-06-14T00:27:51;101193.72;;;14.91;45.88
60832;BME280;46665;51.558;-0.448;2023-06-14T00:30:17;101190.75;;;14.87;45.96
60832;BME280;46665;51.558;-0.448;2023-06-14T00:32:43;101192.44;;;14.83;44.96
60832;BME280;46665;51.558;-0.448;2023-06-14T00:35:09;101195.19;;;14.83;44.86
60832;BME280;46665;51.558;-0.448;2023-06-14T00:37:35;101192.91;;;14.90;43.79
60832;BME280;46665;51.558;-0.448;2023-06-14T00:40:00;101192.81;;;14.95;43.59
60832;BME280;46665;51.558;-0.448;2023-06-14T00:42:27;101196.69;;;14.94;44.38
60832;BME280;46665;51.558;-0.448;2023-06-14T00:44:53;101192.81;;;14.95;44.31
60832;BME280;46665;51.558;-0.448;2023-06-14T00:47:18;101195.03;;;14.93;44.69
60832;BME280;46665;51.558;-0.448;2023-06-14T00:49:48;101200.75;;;14.97;45.12
60832;BME280;46665;51.558;-0.448;2023-06-14T00:52:15;101190.59;;;14.98;44.81
60832;BME280;46665;51.558;-0.448;2023-06-14T00:54:41;101197.50;;;14.95;45.41
60832;BME280;46665;51.558;-0.448;2023-06-14T00:57:08;101192.09;;;14.90;45.21
60832;BME280;46665;51.558;-0.448;2023-06-14T00:59:38;101204.66;;;14.91;46.60
60832;BME280;46665;51.558;-0.448;2023-06-14T01:02:06;101196.09;;;14.79;46.90
60832;BME280;46665;51.558;-0.448;2023-06-14T01:04:32;101199.66;;;14.79;47.30
60832;BME280;46665;51.558;-0.448;2023-06-14T01:07:15;101195.88;;;14.75;47.08
60832;BME280;46665;51.558;-0.448;2023-06-14T01:15:20;101205.78;;;14.71;47.94
60832;BME280;46665;51.558;-0.448;2023-06-14T01:17:48;101204.16;;;14.70;48.10
60832;BME280;46665;51.558;-0.448;2023-06-14T01:20:17;101205.50;;;14.72;48.35
60832;BME280;46665;51.558;-0.448;2023-06-14T01:22:52;101209.34;;;14.71;48.69
60832;BME280;46665;51.558;-0.448;2023-06-14T01:25:21;101198.28;;;14.58;49.46
60832;BME280;46665;51.558;-0.448;2023-06-14T01:28:06;101198.81;;;14.60;49.36
60832;BME280;46665;51.558;-0.448;2023-06-14T01:30:39;101196.16;;;14.55;50.41
60832;BME280;46665;51.558;-0.448;2023-06-14T01:33:13;101198.63;;;14.51;50.81
60832;BME280;46665;51.558;-0.448;2023-06-14T01:35:42;101194.91;;;14.42;51.44
60832;BME280;46665;51.558;-0.448;2023-06-14T01:38:08;101193.06;;;14.37;52.48
60832;BME280;46665;51.558;-0.448;2023-06-14T01:40:34;101187.88;;;14.36;53.65
60832;BME280;46665;51.558;-0.448;2023-06-14T01:43:01;101177.28;;;14.29;54.94
60832;BME280;46665;51.558;-0.448;2023-06-14T01:45:28;101181.69;;;14.25;54.42
60832;BME280;46665;51.558;-0.448;2023-06-14T01:47:54;101182.28;;;14.22;55.80
60832;BME280;46665;51.558;-0.448;2023-06-14T01:50:20;101189.38;;;14.23;56.17
60832;BME280;46665;51.558;-0.448;2023-06-14T01:52:45;101189.44;;;14.18;56.57
60832;BME280;46665;51.558;-0.448;2023-06-14T01:55:11;101186.28;;;14.11;58.01
60832;BME280;46665;51.558;-0.448;2023-06-14T01:57:36;101186.38;;;14.00;58.39
60832;BME280;46665;51.558;-0.448;2023-06-14T02:00:03;101183.66;;;14.00;57.46
60832;BME280;46665;51.558;-0.448;2023-06-14T02:02:29;101187.78;;;13.98;58.08
60832;BME280;46665;51.558;-0.448;2023-06-14T02:04:54;101177.41;;;13.95;57.71
60832;BME280;46665;51.558;-0.448;2023-06-14T02:07:22;101181.91;;;13.85;58.16
60832;BME280;46665;51.558;-0.448;2023-06-14T02:09:47;101182.75;;;13.81;58.29
60832;BME280;46665;51.558;-0.448;2023-06-14T02:12:13;101184.47;;;13.72;59.28
60832;BME280;46665;51.558;-0.448;2023-06-14T02:14:38;101181.00;;;13.66;60.04
60832;BME280;46665;51.558;-0.448;2023-06-14T02:17:04;101173.13;;;13.59;60.41
60832;BME280;46665;51.558;-0.448;2023-06-14T02:19:31;101173.47;;;13.53;61.16
60832;BME280;46665;51.558;-0.448;2023-06-14T02:21:57;101177.88;;;13.49;62.13
60832;BME280;46665;51.558;-0.448;2023-06-14T02:24:22;101178.50;;;13.40;62.84
60832;BME280;46665;51.558;-0.448;2023-06-14T02:26:49;101175.00;;;13.35;64.23
60832;BME280;46665;51.558;-0.448;2023-06-14T02:29:14;101169.56;;;13.30;65.47
60832;BME280;46665;51.558;-0.448;2023-06-14T02:31:40;101169.31;;;13.21;67.32
60832;BME280;46665;51.558;-0.448;2023-06-14T02:34:06;101166.91;;;13.19;68.64
60832;BME280;46665;51.558;-0.448;2023-06-14T02:36:34;101171.88;;;13.12;69.63
60832;BME280;46665;51.558;-0.448;2023-06-14T02:39:00;101158.75;;;13.14;70.23
60832;BME280;46665;51.558;-0.448;2023-06-14T02:41:25;101152.75;;;13.12;71.71
60832;BME280;46665;51.558;-0.448;2023-06-14T02:43:52;101170.84;;;13.03;73.78
60832;BME280;46665;51.558;-0.448;2023-06-14T02:46:17;101166.50;;;13.02;73.67
60832;BME280;46665;51.558;-0.448;2023-06-14T02:48:43;101161.09;;;12.92;74.05
60832;BME280;46665;51.558;-0.448;2023-06-14T02:51:08;101159.00;;;12.73;76.01
60832;BME280;46665;51.558;-0.448;2023-06-14T02:53:35;101155.00;;;12.61;78.53
60832;BME280;46665;51.558;-0.448;2023-06-14T02:56:03;101158.59;;;12.56;78.38
60832;BME280;46665;51.558;-0.448;2023-06-14T02:58:31;101158.31;;;12.57;78.17
60832;BME280;46665;51.558;-0.448;2023-06-14T03:00:58;101163.75;;;12.57;79.90
60832;BME280;46665;51.558;-0.448;2023-06-14T03:03:29;101166.78;;;12.56;82.03
60832;BME280;46665;51.558;-0.448;2023-06-14T03:05:55;101158.09;;;12.49;83.72
60832;BME280;46665;51.558;-0.448;2023-06-14T03:08:20;101158.31;;;12.52;84.21
60832;BME280;46665;51.558;-0.448;2023-06-14T03:10:46;101154.22;;;12.55;85.05
60832;BME280;46665;51.558;-0.448;2023-06-14T03:13:13;101169.22;;;12.57;86.29
60832;BME280;46665;51.558;-0.448;2023-06-14T03:15:38;101167.06;;;12.54;86.00
60832;BME280;46665;51.558;-0.448;2023-06-14T03:18:07;101167.03;;;12.60;86.18
60832;BME280;46665;51.558;-0.448;2023-06-14T03:20:33;101164.53;;;12.63;86.07
60832;BME280;46665;51.558;-0.448;2023-06-14T03:23:00;101166.97;;;12.70;86.73
60832;BME280;46665;51.558;-0.448;2023-06-14T03:25:26;101169.97;;;12.68;87.98
60832;BME280;46665;51.558;-0.448;2023-06-14T03:27:57;101167.25;;;12.68;87.05
60832;BME280;46665;51.558;-0.448;2023-06-14T03:30:23;101173.00;;;12.67;88.67
60832;BME280;46665;51.558;-0.448;2023-06-14T03:32:48;101172.69;;;12.68;88.27
60832;BME280;46665;51.558;-0.448;2023-06-14T03:35:14;101167.28;;;12.63;89.68
60832;BME280;46665;51.558;-0.448;2023-06-14T03:37:45;101168.91;;;12.64;88.97
60832;BME280;46665;51.558;-0.448;2023-06-14T03:40:12;101174.38;;;12.64;90.84
60832;BME280;46665;51.558;-0.448;2023-06-14T03:42:38;101176.31;;;12.64;90.52
60832;BME280;46665;51.558;-0.448;2023-06-14T03:45:04;101165.09;;;12.60;91.20
60832;BME280;46665;51.558;-0.448;2023-06-14T03:47:30;101172.53;;;12.54;91.20
60832;BME280;46665;51.558;-0.448;2023-06-14T03:49:55;101174.97;;;12.56;90.87
60832;BME280;46665;51.558;-0.448;2023-06-14T03:52:21;101169.75;;;12.60;91.55
60832;BME280;46665;51.558;-0.448;2023-06-14T03:54:48;101176.09;;;12.50;93.81
60832;BME280;46665;51.558;-0.448;2023-06-14T03:57:14;101167.91;;;12.50;94.08
60832;BME280;46665;51.558;-0.448;2023-06-14T03:59:40;101171.97;;;12.52;93.54
60832;BME280;46665;51.558;-0.448;2023-06-14T04:02:06;101169.81;;;12.49;94.33
60832;BME280;46665;51.558;-0.448;2023-06-14T04:04:32;101174.72;;;12.52;95.13
60832;BME280;46665;51.558;-0.448;2023-06-14T04:06:58;101168.41;;;12.57;94.54
60832;BME280;46665;51.558;-0.448;2023-06-14T04:09:25;101164.59;;;12.53;96.31
60832;BME280;46665;51.558;-0.448;2023-06-14T04:11:55;101166.50;;;12.57;95.87
60832;BME280;46665;51.558;-0.448;2023-06-14T04:14:21;101162.16;;;12.51;97.17
60832;BME280;46665;51.558;-0.448;2023-06-14T04:16:48;101170.91;;;12.53;97.59
60832;BME280;46665;51.558;-0.448;2023-06-14T04:19:14;101171.72;;;12.54;97.15
60832;BME280;46665;51.558;-0.448;2023-06-14T04:21:40;101170.91;;;12.53;97.84
60832;BME280;46665;51.558;-0.448;2023-06-14T04:24:05;101178.53;;;12.56;98.28
60832;BME280;46665;51.558;-0.448;2023-06-14T04:26:32;101171.13;;;12.57;98.12
60832;BME280;46665;51.558;-0.448;2023-06-14T04:28:58;101174.09;;;12.61;98.97
60832;BME280;46665;51.558;-0.448;2023-06-14T04:31:29;101178.72;;;12.65;98.54
60832;BME280;46665;51.558;-0.448;2023-06-14T04:33:59;101169.47;;;12.66;98.95
60832;BME280;46665;51.558;-0.448;2023-06-14T04:36:24;101177.31;;;12.73;99.16
60832;BME280;46665;51.558;-0.448;2023-06-14T04:38:50;101179.47;;;12.76;99.48
60832;BME280;46665;51.558;-0.448;2023-06-14T04:41:20;101177.63;;;12.71;100.00
60832;BME280;46665;51.558;-0.448;2023-06-14T04:43:48;101174.88;;;12.71;99.92
60832;BME280;46665;51.558;-0.448;2023-06-14T04:46:14;101171.31;;;12.71;100.00
60832;BME280;46665;51.558;-0.448;2023-06-14T04:48:40;101179.47;;;12.76;100.00
60832;BME280;46665;51.558;-0.448;2023-06-14T04:51:08;101181.94;;;12.77;100.00
60832;BME280;46665;51.558;-0.448;2023-06-14T04:53:34;101183.06;;;12.76;100.00
60832;BME280;46665;51.558;-0.448;2023-06-14T04:56:00;101187.16;;;12.74;100.00
60832;BME280;46665;51.558;-0.448;2023-06-14T04:58:29;101183.06;;;12.76;100.00
60832;BME280;46665;51.558;-0.448;2023-06-14T05:00:55;101180.28;;;12.82;100.00
60832;BME280;46665;51.558;-0.448;2023-06-14T05:03:22;101180.53;;;12.85;100.00
60832;BME280;46665;51.558;-0.448;2023-06-14T05:05:49;101186.25;;;12.89;100.00
60832;BME280;46665;51.558;-0.448;2023-06-14T05:08:15;101185.38;;;12.93;100.00
60832;BME280;46665;51.558;-0.448;2023-06-14T05:10:41;101183.44;;;12.99;100.00
60832;BME280;46665;51.558;-0.448;2023-06-14T05:13:06;101185.81;;;13.11;100.00
60832;BME280;46665;51.558;-0.448;2023-06-14T05:15:32;101187.66;;;13.20;100.00
60832;BME280;46665;51.558;-0.448;2023-06-14T05:17:57;101190.91;;;13.28;100.00
60832;BME280;46665;51.558;-0.448;2023-06-14T05:20:23;101187.00;;;13.34;100.00
60832;BME280;46665;51.558;-0.448;2023-06-14T05:22:53;101186.41;;;13.42;100.00
60832;BME280;46665;51.558;-0.448;2023-06-14T05:25:19;101181.91;;;13.56;100.00
60832;BME280;46665;51.558;-0.448;2023-06-14T05:27:46;101189.69;;;13.73;100.00
60832;BME280;46665;51.558;-0.448;2023-06-14T05:30:12;101190.97;;;13.81;100.00
60832;BME280;46665;51.558;-0.448;2023-06-14T05:32:37;101192.88;;;14.04;100.00
60832;BME280;46665;51.558;-0.448;2023-06-14T05:35:03;101184.09;;;14.07;100.00
60832;BME280;46665;51.558;-0.448;2023-06-14T05:37:29;101194.41;;;14.16;100.00
60832;BME280;46665;51.558;-0.448;2023-06-14T05:39:56;101193.47;;;14.25;100.00
60832;BME280;46665;51.558;-0.448;2023-06-14T05:42:21;101186.69;;;14.42;100.00
60832;BME280;46665;51.558;-0.448;2023-06-14T05:44:46;101200.91;;;14.44;99.38
60832;BME280;46665;51.558;-0.448;2023-06-14T05:47:12;101193.13;;;14.56;99.47
60832;BME280;46665;51.558;-0.448;2023-06-14T05:49:37;101199.19;;;14.72;99.13
60832;BME280;46665;51.558;-0.448;2023-06-14T05:52:03;101191.28;;;14.89;98.20
60832;BME280;46665;51.558;-0.448;2023-06-14T05:54:28;101197.41;;;15.00;97.49
60832;BME280;46665;51.558;-0.448;2023-06-14T05:56:53;101201.84;;;15.15;96.36
60832;BME280;46665;51.558;-0.448;2023-06-14T05:59:19;101202.22;;;15.27;95.89
60832;BME280;46665;51.558;-0.448;2023-06-14T06:01:45;101203.88;;;15.42;93.88
60832;BME280;46665;51.558;-0.448;2023-06-14T06:04:11;101204.19;;;15.41;92.64
60832;BME280;46665;51.558;-0.448;2023-06-14T06:06:37;101200.22;;;15.47;93.43
60832;BME280;46665;51.558;-0.448;2023-06-14T06:09:02;101202.88;;;15.52;92.21
60832;BME280;46665;51.558;-0.448;2023-06-14T06:11:28;101201.47;;;15.54;92.15
60832;BME280;46665;51.558;-0.448;2023-06-14T06:13:53;101207.69;;;15.60;91.47
60832;BME280;46665;51.558;-0.448;2023-06-14T06:16:18;101214.25;;;15.45;92.36
60832;BME280;46665;51.558;-0.448;2023-06-14T06:18:44;101211.59;;;15.40;91.81
60832;BME280;46665;51.558;-0.448;2023-06-14T06:21:09;101207.69;;;15.27;93.54
60832;BME280;46665;51.558;-0.448;2023-06-14T06:23:35;101210.13;;;15.29;93.27
60832;BME280;46665;51.558;-0.448;2023-06-14T06:26:00;101207.69;;;15.27;94.22
60832;BME280;46665;51.558;-0.448;2023-06-14T06:28:26;101207.81;;;15.36;94.18
60832;BME280;46665;51.558;-0.448;2023-06-14T06:30:51;101213.72;;;15.43;94.13
60832;BME280;46665;51.558;-0.448;2023-06-14T06:33:18;101219.94;;;15.49;94.81
60832;BME280;46665;51.558;-0.448;2023-06-14T06:35:43;101213.38;;;15.50;93.82
60832;BME280;46665;51.558;-0.448;2023-06-14T06:38:09;101208.69;;;15.50;94.14
60832;BME280;46665;51.558;-0.448;2023-06-14T06:40:35;101212.44;;;15.54;93.96
60832;BME280;46665;51.558;-0.448;2023-06-14T06:43:02;101207.78;;;15.55;94.53
60832;BME280;46665;51.558;-0.448;2023-06-14T06:45:28;101206.53;;;15.47;94.81
60832;BME280;46665;51.558;-0.448;2023-06-14T06:47:55;101211.63;;;15.54;95.48
60832;BME280;46665;51.558;-0.448;2023-06-14T06:50:21;101204.34;;;15.63;94.67
60832;BME280;46665;51.558;-0.448;2023-06-14T06:52:48;101213.28;;;15.69;95.02
60832;BME280;46665;51.558;-0.448;2023-06-14T06:55:14;101217.63;;;15.75;93.77
60832;BME280;46665;51.558;-0.448;2023-06-14T06:57:39;101219.94;;;15.81;93.83
60832;BME280;46665;51.558;-0.448;2023-06-14T07:00:06;101217.44;;;15.85;94.19
60832;BME280;46665;51.558;-0.448;2023-06-14T07:02:34;101219.25;;;15.90;93.34
60832;BME280;46665;51.558;-0.448;2023-06-14T07:04:59;101217.81;;;15.92;93.16
60832;BME280;46665;51.558;-0.448;2023-06-14T07:07:25;101225.16;;;15.97;93.58
60832;BME280;46665;51.558;-0.448;2023-06-14T07:09:50;101221.50;;;16.01;93.11
60832;BME280;46665;51.558;-0.448;2023-06-14T07:12:16;101224.16;;;16.07;93.64
60832;BME280;46665;51.558;-0.448;2023-06-14T07:14:41;101218.28;;;16.13;93.75
60832;BME280;46665;51.558;-0.448;2023-06-14T07:17:07;101223.84;;;16.22;93.58
60832;BME280;46665;51.558;-0.448;2023-06-14T07:19:32;101213.91;;;16.26;92.78
60832;BME280;46665;51.558;-0.448;2023-06-14T07:21:58;101224.44;;;16.33;93.36
60832;BME280;46665;51.558;-0.448;2023-06-14T07:24:23;101220.09;;;16.32;92.00
60832;BME280;46665;51.558;-0.448;2023-06-14T07:26:49;101230.06;;;16.41;92.96
60832;BME280;46665;51.558;-0.448;2023-06-14T07:29:15;101223.03;;;16.49;92.05
60832;BME280;46665;51.558;-0.448;2023-06-14T07:31:41;101227.00;;;16.57;92.43
60832;BME280;46665;51.558;-0.448;2023-06-14T07:34:07;101228.38;;;16.68;91.68
60832;BME280;46665;51.558;-0.448;2023-06-14T07:36:32;101235.63;;;16.78;91.94
60832;BME280;46665;51.558;-0.448;2023-06-14T07:38:57;101219.84;;;16.83;91.95
60832;BME280;46665;51.558;-0.448;2023-06-14T07:41:23;101227.56;;;16.95;91.17
60832;BME280;46665;51.558;-0.448;2023-06-14T07:43:49;101230.69;;;17.02;91.24
60832;BME280;46665;51.558;-0.448;2023-06-14T07:46:14;101227.81;;;17.07;89.88
60832;BME280;46665;51.558;-0.448;2023-06-14T07:48:40;101226.06;;;17.11;89.59
60832;BME280;46665;51.558;-0.448;2023-06-14T07:51:05;101230.63;;;17.16;89.89
60832;BME280;46665;51.558;-0.448;2023-06-14T07:53:31;101232.97;;;17.23;90.15
60832;BME280;46665;51.558;-0.448;2023-06-14T07:55:57;101227.03;;;17.29;90.05
60832;BME280;46665;51.558;-0.448;2023-06-14T07:58:22;101232.47;;;17.43;89.89
60832;BME280;46665;51.558;-0.448;2023-06-14T08:00:47;101236.69;;;17.49;90.20
60832;BME280;46665;51.558;-0.448;2023-06-14T08:03:13;101224.63;;;17.59;90.12
60832;BME280;46665;51.558;-0.448;2023-06-14T08:05:39;101238.47;;;17.68;88.38
60832;BME280;46665;51.558;-0.448;2023-06-14T08:08:04;101234.28;;;17.79;88.70
60832;BME280;46665;51.558;-0.448;2023-06-14T08:10:30;101235.50;;;17.87;88.44
60832;BME280;46665;51.558;-0.448;2023-06-14T08:12:55;101241.38;;;17.94;87.69
60832;BME280;46665;51.558;-0.448;2023-06-14T08:15:21;101245.81;;;18.04;nan
60832;BME280;46665;51.558;-0.448;2023-06-14T08:17:46;101241.97;;;18.13;86.22
60832;BME280;46665;51.558;-0.448;2023-06-14T08:20:12;101229.34;;;18.21;85.81
60832;BME280;46665;51.558;-0.448;2023-06-14T08:22:39;101239.09;;;18.27;86.01
60832;BME280;46665;51.558;-0.448;2023-06-14T08:25:07;101244.94;;;18.34;84.18
60832;BME280;46665;51.558;-0.448;2023-06-14T08:27:34;101234.28;;;18.41;84.09
60832;BME280;46665;51.558;-0.448;2023-06-14T08:29:59;101243.38;;;18.51;83.31
60832;BME280;46665;51.558;-0.448;2023-06-14T08:32:25;101238.03;;;18.54;82.79
60832;BME280;46665;51.558;-0.448;2023-06-14T08:34:50;101232.38;;;18.59;82.87
60832;BME280;46665;51.558;-0.448;2023-06-14T08:37:16;101239.53;;;18.69;81.59
60832;BME280;46665;51.558;-0.448;2023-06-14T08:39:41;101234.41;;;18.76;81.52
60832;BME280;46665;51.558;-0.448;2023-06-14T08:42:09;101237.81;;;18.82;81.75
60832;BME280;46665;51.558;-0.448;2023-06-14T08:44:35;101238.59;;;18.91;82.14
60832;BME280;46665;51.558;-0.448;2023-06-14T08:47:01;101235.22;;;19.03;82.96
60832;BME280;46665;51.558;-0.448;2023-06-14T08:49:29;101236.84;;;19.13;81.38
60832;BME280;46665;51.558;-0.448;2023-06-14T08:52:00;101235.88;;;19.17;81.30
60832;BME280;46665;51.558;-0.448;2023-06-14T08:54:28;101240.72;;;19.20;80.69
60832;BME280;46665;51.558;-0.448;2023-06-14T08:56:56;101238.31;;;19.27;79.20
60832;BME280;46665;51.558;-0.448;2023-06-14T08:59:26;101232.75;;;19.36;80.26
60832;BME280;46665;51.558;-0.448;2023-06-14T09:01:52;101234.38;;;19.46;78.74
60832;BME280;46665;51.558;-0.448;2023-06-14T09:04:21;101232.44;;;19.55;81.06
60832;BME280;46665;51.558;-0.448;2023-06-14T09:06:55;101236.97;;;19.60;78.60
60832;BME280;46665;51.558;-0.448;2023-06-14T09:09:21;101241.84;;;19.72;79.44
60832;BME280;46665;51.558;-0.448;2023-06-14T09:11:49;101236.94;;;19.77;78.96
60832;BME280;46665;51.558;-0.448;2023-06-14T09:14:14;101251.06;;;19.84;77.76
60832;BME280;46665;51.558;-0.448;2023-06-14T09:16:40;101251.19;;;19.97;77.71
60832;BME280;46665;51.558;-0.448;2023-06-14T09:19:05;101251.50;;;20.04;75.39
60832;BME280;46665;51.558;-0.448;2023-06-14T09:21:34;101256.34;;;20.16;75.32
60832;BME280;46665;51.558;-0.448;2023-06-14T09:24:01;101257.88;;;20.25;74.11
60832;BME280;46665;51.558;-0.448;2023-06-14T09:26:27;101260.94;;;20.32;73.31
60832;BME280;46665;51.558;-0.448;2023-06-14T09:28:53;101260.75;;;20.38;72.94
60832;BME280;46665;51.558;-0.448;2023-06-14T09:31:20;101258.28;;;20.45;72.22
60832;BME280;46665;51.558;-0.448;2023-06-14T09:33:47;101253.72;;;20.49;71.58
60832;BME280;46665;51.558;-0.448;2023-06-14T09:36:25;101252.56;;;20.59;72.15
60832;BME280;46665;51.558;-0.448;2023-06-14T09:38:52;101258.16;;;20.71;69.84
60832;BME280;46665;51.558;-0.448;2023-06-14T09:41:18;101265.44;;;20.84;69.87
60832;BME280;46665;51.558;-0.448;2023-06-14T09:43:45;101261.19;;;20.87;69.64
60832;BME280;46665;51.558;-0.448;2023-06-14T09:46:12;101264.19;;;20.94;68.84
60832;BME280;46665;51.558;-0.448;2023-06-14T09:48:38;101257.81;;;21.02;68.71
60832;BME280;46665;51.558;-0.448;2023-06-14T09:51:09;101266.38;;;21.09;68.33
60832;BME280;46665;51.558;-0.448;2023-06-14T09:53:36;101261.38;;;21.24;69.43
60832;BME280;46665;51.558;-0.448;2023-06-14T09:56:02;101256.38;;;21.38;67.17
60832;BME280;46665;51.558;-0.448;2023-06-14T09:58:29;101249.84;;;21.42;67.85
60832;BME280;46665;51.558;-0.448;2023-06-14T10:00:56;101253.69;;;21.50;68.43
60832;BME280;46665;51.558;-0.448;2023-06-14T10:03:28;101257.03;;;21.56;66.79
60832;BME280;46665;51.558;-0.448;2023-06-14T10:05:58;101263.66;;;21.63;65.93
60832;BME280;46665;51.558;-0.448;2023-06-14T10:08:30;101263.09;;;21.70;65.28
60832;BME280;46665;51.558;-0.448;2023-06-14T10:10:58;101257.34;;;21.75;66.15
60832;BME280;46665;51.558;-0.448;2023-06-14T10:13:25;101263.72;;;21.88;66.28
60832;BME280;46665;51.558;-0.448;2023-06-14T10:15:57;101267.19;;;21.97;65.36
60832;BME280;46665;51.558;-0.448;2023-06-14T10:21:13;101255.66;;;22.07;64.09
60832;BME280;46665;51.558;-0.448;2023-06-14T10:23:43;101251.63;;;22.17;61.63
60832;BME280;46665;51.558;-0.448;2023-06-14T10:26:18;101258.16;;;22.34;61.75
60832;BME280;46665;51.558;-0.448;2023-06-14T10:28:55;101255.16;;;22.39;58.89
60832;BME280;46665;51.558;-0.448;2023-06-14T10:31:21;101257.00;;;22.47;60.74
60832;BME280;46665;51.558;-0.448;2023-06-14T10:33:56;101248.78;;;22.50;59.62
60832;BME280;46665;51.558;-0.448;2023-06-14T10:39:08;101254.44;;;22.66;58.13
60832;BME280;46665;51.558;-0.448;2023-06-14T10:41:39;101246.31;;;22.73;56.93
60832;BME280;46665;51.558;-0.448;2023-06-14T10:46:40;101249.19;;;22.89;56.75
60832;BME280;46665;51.558;-0.448;2023-06-14T10:49:06;101240.97;;;22.93;56.21
60832;BME280;46665;51.558;-0.448;2023-06-14T10:51:40;101254.94;;;23.09;58.27
60832;BME280;46665;51.558;-0.448;2023-06-14T10:54:13;101256.31;;;23.15;53.46
60832;BME280;46665;51.558;-0.448;2023-06-14T10:56:46;101255.72;;;23.22;54.77
60832;BME280;46665;51.558;-0.448;2023-06-14T10:59:11;101252.00;;;23.30;55.09
60832;BME280;46665;51.558;-0.448;2023-06-14T11:01:45;101255.88;;;23.41;53.19
60832;BME280;46665;51.558;-0.448;2023-06-14T11:04:20;101249.59;;;23.44;53.24
60832;BME280;46665;51.558;-0.448;2023-06-14T11:06:50;101252.25;;;23.53;54.31
60832;BME280;46665;51.558;-0.448;2023-06-14T11:09:38;101252.44;;;23.60;52.55
60832;BME280;46665;51.558;-0.448;2023-06-14T11:12:11;101241.50;;;23.67;53.20
60832;BME280;46665;51.558;-0.448;2023-06-14T11:14:39;101249.25;;;23.74;52.15
60832;BME280;46665;51.558;-0.448;2023-06-14T11:17:05;101239.47;;;23.80;51.39
60832;BME280;46665;51.558;-0.448;2023-06-14T11:19:30;101236.47;;;23.85;51.80
60832;BME280;46665;51.558;-0.448;2023-06-14T11:21:57;101243.91;;;23.97;51.85
60832;BME280;46665;51.558;-0.448;2023-06-14T11:24:22;101232.97;;;24.04;51.86
60832;BME280;46665;51.558;-0.448;2023-06-14T11:26:49;101237.25;;;24.17;51.27
60832;BME280;46665;51.558;-0.448;2023-06-14T11:29:15;101241.66;;;24.34;50.28
60832;BME280;46665;51.558;-0.448;2023-06-14T11:31:44;101239.78;;;24.38;47.93
60832;BME280;46665;51.558;-0.448;2023-06-14T11:34:13;101238.59;;;24.39;47.31
60832;BME280;46665;51.558;-0.448;2023-06-14T11:36:39;101233.69;;;24.49;47.87
60832;BME280;46665;51.558;-0.448;2023-06-14T11:39:06;101235.47;;;24.57;49.00
60832;BME280;46665;51.558;-0.448;2023-06-14T11:41:40;101238.69;;;24.59;49.77
60832;BME280;46665;51.558;-0.448;2023-06-14T11:44:07;101239.94;;;24.61;48.11
60832;BME280;46665;51.558;-0.448;2023-06-14T11:46:33;101243.97;;;24.64;47.08
60832;BME280;46665;51.558;-0.448;2023-06-14T11:48:58;101237.75;;;24.71;48.23
60832;BME280;46665;51.558;-0.448;2023-06-14T11:51:24;101225.25;;;24.80;48.33
60832;BME280;46665;51.558;-0.448;2023-06-14T11:53:50;101238.13;;;24.88;48.49
60832;BME280;46665;51.558;-0.448;2023-06-14T11:56:15;101230.34;;;24.94;47.02
60832;BME280;46665;51.558;-0.448;2023-06-14T11:58:43;101235.16;;;24.97;47.81
60832;BME280;46665;51.558;-0.448;2023-06-14T12:01:08;101237.94;;;24.97;46.44
60832;BME280;46665;51.558;-0.448;2023-06-14T12:03:34;101236.56;;;25.07;48.32
60832;BME280;46665;51.558;-0.448;2023-06-14T12:06:07;101223.50;;;25.11;46.38
60832;BME280;46665;51.558;-0.448;2023-06-14T12:08:37;101230.72;;;25.32;46.13
60832;BME280;46665;51.558;-0.448;2023-06-14T12:11:12;101223.00;;;25.44;44.32
60832;BME280;46665;51.558;-0.448;2023-06-14T12:13:41;101218.81;;;25.54;45.91
60832;BME280;46665;51.558;-0.448;2023-06-14T12:16:11;101233.19;;;25.56;40.52
60832;BME280;46665;51.558;-0.448;2023-06-14T12:18:42;101225.13;;;25.74;41.16
60832;BME280;46665;51.558;-0.448;2023-06-14T12:21:09;101225.34;;;25.85;42.96
60832;BME280;46665;51.558;-0.448;2023-06-14T12:23:46;101225.22;;;25.78;41.80
60832;BME280;46665;51.558;-0.448;2023-06-14T12:26:16;101228.13;;;25.85;41.21
60832;BME280;46665;51.558;-0.448;2023-06-14T12:28:46;101224.78;;;25.76;43.02
60832;BME280;46665;51.558;-0.448;2023-06-14T12:31:12;101218.78;;;25.73;42.21
60832;BME280;46665;51.558;-0.448;2023-06-14T12:33:41;101230.78;;;25.78;40.57
60832;BME280;46665;51.558;-0.448;2023-06-14T12:36:07;101223.28;;;25.82;40.57
60832;BME280;46665;51.558;-0.448;2023-06-14T12:38:36;101225.72;;;25.83;38.85
60832;BME280;46665;51.558;-0.448;2023-06-14T12:41:02;101223.81;;;25.87;38.02
60832;BME280;46665;51.558;-0.448;2023-06-14T12:43:27;101221.09;;;25.91;38.45
60832;BME280;46665;51.558;-0.448;2023-06-14T12:45:53;101219.28;;;26.02;37.75
60832;BME280;46665;51.558;-0.448;2023-06-14T12:48:19;101220.41;;;26.21;38.12
60832;BME280;46665;51.558;-0.448;2023-06-14T12:50:44;101228.34;;;26.19;36.82
60832;BME280;46665;51.558;-0.448;2023-06-14T12:53:10;101221.72;;;26.30;37.87